sensor_id;sensor_type;location;lat;lon;timestamp;pressure;altitude;pressure_sealevel;temperature;humidity
14800;BME280;7491;57.750;11.970;2023-05-20T00:00:06;77378.84;;;-142.11;100.00
14800;BME280;7491;57.750;11.970;2023-05-20T00:02:35;77374.75;;;-142.11;100.00
14800;BME280;7491;57.750;11.970;2023-05-20T00:05:02;77364.56;;;-142.11;100.00
14800;BME280;7491;57.750;11.970;2023-05-20T00:07:32;77362.50;;;-142.11;100.00
14800;BME280;7491;57.750;11.970;2023-05-20T00:10:04;77358.44;;;-142.11;100.00
14800;BME280;7491;57.750;11.970;2023-05-20T00:12:34;77368.63;;;-142.11;100.00
14800;BME280;7491;57.750;11.970;2023-05-20T00:15:14;77362.50;;;-142.11;100.00
14800;BME280;7491;57.750;11.970;2023-05-20T00:17:48;77358.44;;;-142.11;100.00
14800;BME280;7491;57.750;11.970;2023-05-20T00:20:38;77364.56;;;-142.11;100.00
14800;BME280;7491;57.750;11.970;2023-05-20T02:00:12;77552.16;;;-142.11;100.00
14800;BME280;7491;57.750;11.970;2023-05-20T02:02:39;77566.44;;;-142.11;100.00
14800;BME280;7491;57.750;11.970;2023-05-20T02:05:45;77566.44;;;-142.11;100.00
14800;BME280;7491;57.750;11.970;2023-05-20T02:11:29;77588.88;;;-142.11;100.00
14800;BME280;7491;57.750;11.970;2023-05-20T02:14:45;77590.91;;;-142.11;100.00
14800;BME280;7491;57.750;11.970;2023-05-20T02:17:21;77599.06;;;-142.11;100.00
14800;BME280;7491;57.750;11.970;2023-05-20T02:19:48;77611.31;;;-142.11;100.00
14800;BME280;7491;57.750;11.970;2023-05-20T02:22:18;77607.22;;;-142.11;100.00
14800;BME280;7491;57.750;11.970;2023-05-20T02:24:45;77590.91;;;-142.11;100.00
14800;BME280;7491;57.750;11.970;2023-05-20T02:27:12;77576.63;;;-142.11;100.00
14800;BME280;7491;57.750;11.970;2023-05-20T02:29:38;77580.72;;;-142.11;100.00
14800;BME280;7491;57.750;11.970;2023-05-20T02:32:08;77574.59;;;-142.11;100.00
14800;BME280;7491;57.750;11.970;2023-05-20T02:34:37;77572.56;;;-142.11;100.00
14800;BME280;7491;57.750;11.970;2023-05-20T02:37:07;77586.84;;;-142.11;100.00
14800;BME280;7491;57.750;11.970;2023-05-20T02:39:34;77572.56;;;-142.11;100.00
14800;BME280;7491;57.750;11.970;2023-05-20T02:42:07;77586.84;;;-142.11;100.00
14800;BME280;7491;57.750;11.970;2023-05-20T02:44:34;77595.00;;;-142.11;100.00
14800;BME280;7491;57.750;11.970;2023-05-20T02:47:00;77603.16;;;-142.11;100.00
14800;BME280;7491;57.750;11.970;2023-05-20T02:49:27;77607.22;;;-142.11;100.00
14800;BME280;7491;57.750;11.970;2023-05-20T02:51:55;77607.22;;;-142.11;100.00
14800;BME280;7491;57.750;11.970;2023-05-20T02:54:22;77607.22;;;-142.11;100.00
14800;BME280;7491;57.750;11.970;2023-05-20T02:56:49;77613.34;;;-142.11;100.00
14800;BME280;7491;57.750;11.970;2023-05-20T02:59:15;77625.59;;;-142.11;100.00
14800;BME280;7491;57.750;11.970;2023-05-20T03:01:42;77615.38;;;-142.11;100.00
14800;BME280;7491;57.750;11.970;2023-05-20T03:04:08;77609.28;;;-142.11;100.00
14800;BME280;7491;57.750;11.970;2023-05-20T03:06:35;77601.13;;;-142.11;100.00
14800;BME280;7491;57.750;11.970;2023-05-20T03:09:03;77601.13;;;-142.11;100.00
14800;BME280;7491;57.750;11.970;2023-05-20T03:11:30;77590.91;;;-142.11;100.00
14800;BME280;7491;57.750;11.970;2023-05-20T03:13:57;77582.75;;;-142.11;100.00
14800;BME280;7491;57.750;11.970;2023-05-20T03:16:24;77578.69;;;-142.11;100.00
14800;BME280;7491;57.750;11.970;2023-05-20T03:18:52;77572.56;;;-142.11;100.00
14800;BME280;7491;57.750;11.970;2023-05-20T03:21:19;77592.94;;;-142.11;100.00
14800;BME280;7491;57.750;11.970;2023-05-20T03:23:48;77597.03;;;-142.11;100.00
14800;BME280;7491;57.750;11.970;2023-05-20T03:26:16;77592.94;;;-142.11;100.00
14800;BME280;7491;57.750;11.970;2023-05-20T03:28:43;77590.91;;;-142.11;100.00
14800;BME280;7491;57.750;11.970;2023-05-20T03:31:10;77592.94;;;-142.11;100.00
14800;BME280;7491;57.750;11.970;2023-05-20T03:33:36;77590.91;;;-142.11;100.00
14800;BME280;7491;57.750;11.970;2023-05-20T03:36:04;77597.03;;;-142.11;100.00
14800;BME280;7491;57.750;11.970;2023-05-20T03:38:31;77603.16;;;-142.11;100.00
14800;BME280;7491;57.750;11.970;2023-05-20T03:40:58;77584.78;;;-142.11;100.00
14800;BME280;7491;57.750;11.970;2023-05-20T03:43:26;77592.94;;;-142.11;100.00
14800;BME280;7491;57.750;11.970;2023-05-20T03:45:53;77576.63;;;-142.11;100.00
14800;BME280;7491;57.750;11.970;2023-05-20T03:48:20;77570.53;;;-142.11;100.00
14800;BME280;7491;57.750;11.970;2023-05-20T03:50:46;77564.41;;;-142.11;100.00
14800;BME280;7491;57.750;11.970;2023-05-20T03:53:13;77554.22;;;-142.11;100.00
14800;BME280;7491;57.750;11.970;2023-05-20T03:55:41;77546.06;;;-142.11;100.00
14800;BME280;7491;57.750;11.970;2023-05-20T03:58:08;77527.69;;;-142.11;100.00
14800;BME280;7491;57.750;11.970;2023-05-20T04:00:42;77523.63;;;-142.11;100.00
14800;BME280;7491;57.750;11.970;2023-05-20T04:03:09;77517.50;;;-142.11;100.00
14800;BME280;7491;57.750;11.970;2023-05-20T04:08:47;77491.00;;;-142.11;100.00
14800;BME280;7491;57.750;11.970;2023-05-20T04:11:14;77486.91;;;-142.11;100.00
14800;BME280;7491;57.750;11.970;2023-05-20T04:13:44;77476.72;;;-142.11;100.00
14800;BME280;7491;57.750;11.970;2023-05-20T04:16:47;77464.47;;;-142.11;100.00
14800;BME280;7491;57.750;11.970;2023-05-20T04:55:28;77276.88;;;-142.11;100.00
14800;BME280;7491;57.750;11.970;2023-05-20T05:01:13;77236.09;;;-142.11;100.00
14800;BME280;7491;57.750;11.970;2023-05-20T05:03:40;77221.81;;;-142.11;100.00
14800;BME280;7491;57.750;11.970;2023-05-20T05:06:07;77201.41;;;-142.11;100.00
14800;BME280;7491;57.750;11.970;2023-05-20T05:08:33;77189.19;;;-142.11;100.00
14800;BME280;7491;57.750;11.970;2023-05-20T05:11:04;77185.09;;;-142.11;100.00
14800;BME280;7491;57.750;11.970;2023-05-20T05:13:30;77164.72;;;-142.11;100.00
14800;BME280;7491;57.750;11.970;2023-05-20T05:15:58;77158.59;;;-142.11;100.00
14800;BME280;7491;57.750;11.970;2023-05-20T05:18:25;77146.38;;;-142.11;100.00
14800;BME280;7491;57.750;11.970;2023-05-20T05:20:58;77130.06;;;-142.11;100.00
14800;BME280;7491;57.750;11.970;2023-05-20T05:23:25;77117.81;;;-142.11;100.00
14800;BME280;7491;57.750;11.970;2023-05-20T05:25:52;77099.47;;;-142.11;100.00
14800;BME280;7491;57.750;11.970;2023-05-20T05:28:20;77089.28;;;-142.11;100.00
14800;BME280;7491;57.750;11.970;2023-05-20T05:30:47;77070.91;;;-142.11;100.00
14800;BME280;7491;57.750;11.970;2023-05-20T05:33:13;77050.53;;;-142.11;100.00
14800;BME280;7491;57.750;11.970;2023-05-20T05:35:40;77040.34;;;-142.11;100.00
14800;BME280;7491;57.750;11.970;2023-05-20T05:38:07;77032.19;;;-142.11;100.00
14800;BME280;7491;57.750;11.970;2023-05-20T05:40:34;77017.91;;;-142.11;100.00
14800;BME280;7491;57.750;11.970;2023-05-20T05:43:01;76997.50;;;-142.11;100.00
14800;BME280;7491;57.750;11.970;2023-05-20T05:45:29;76977.13;;;-142.11;100.00
14800;BME280;7491;57.750;11.970;2023-05-20T05:47:56;76958.78;;;-142.11;100.00
14800;BME280;7491;57.750;11.970;2023-05-20T05:50:23;76942.47;;;-142.11;100.00
14800;BME280;7491;57.750;11.970;2023-05-20T05:52:49;76932.28;;;-142.11;100.00
14800;BME280;7491;57.750;11.970;2023-05-20T05:55:16;76911.88;;;-142.11;100.00
14800;BME280;7491;57.750;11.970;2023-05-20T05:57:43;76901.69;;;-142.11;100.00
14800;BME280;7491;57.750;11.970;2023-05-20T06:00:11;76895.56;;;-142.11;100.00
14800;BME280;7491;57.750;11.970;2023-05-20T06:02:39;76864.97;;;-142.11;100.00
14800;BME280;7491;57.750;11.970;2023-05-20T06:05:07;76858.88;;;-142.11;100.00
14800;BME280;7491;57.750;11.970;2023-05-20T06:07:34;76828.28;;;-142.11;100.00
14800;BME280;7491;57.750;11.970;2023-05-20T06:10:00;76801.78;;;-142.11;100.00
14800;BME280;7491;57.750;11.970;2023-05-20T06:12:27;76785.47;;;-142.11;100.00
14800;BME280;7491;57.750;11.970;2023-05-20T06:14:54;76767.13;;;-142.11;100.00
14800;BME280;7491;57.750;11.970;2023-05-20T06:17:21;76744.69;;;-142.11;100.00
14800;BME280;7491;57.750;11.970;2023-05-20T06:19:49;76738.56;;;-142.11;100.00
14800;BME280;7491;57.750;11.970;2023-05-20T06:22:16;76748.75;;;-142.11;100.00
14800;BME280;7491;57.750;11.970;2023-05-20T06:24:42;76724.31;;;-142.11;100.00
14800;BME280;7491;57.750;11.970;2023-05-20T06:27:09;76697.78;;;-142.11;100.00
14800;BME280;7491;57.750;11.970;2023-05-20T06:29:38;76671.28;;;-142.11;100.00
14800;BME280;7491;57.750;11.970;2023-05-20T06:32:07;76644.78;;;-142.11;100.00
14800;BME280;7491;57.750;11.970;2023-05-20T06:34:34;76626.44;;;-142.11;100.00
14800;BME280;7491;57.750;11.970;2023-05-20T06:37:02;76597.91;;;-142.11;100.00
14800;BME280;7491;57.750;11.970;2023-05-20T06:39:29;76573.44;;;-142.11;100.00
14800;BME280;7491;57.750;11.970;2023-05-20T06:41:56;76561.19;;;-142.11;100.00
14800;BME280;7491;57.750;11.970;2023-05-20T06:44:23;76542.84;;;-142.11;100.00
14800;BME280;7491;57.750;11.970;2023-05-20T06:46:50;76520.41;;;-142.11;100.00
14800;BME280;7491;57.750;11.970;2023-05-20T06:49:17;76483.72;;;-142.11;100.00
14800;BME280;7491;57.750;11.970;2023-05-20T06:51:43;76481.69;;;-142.11;100.00
14800;BME280;7491;57.750;11.970;2023-05-20T06:54:14;76447.03;;;-142.11;100.00
14800;BME280;7491;57.750;11.970;2023-05-20T06:56:41;76408.28;;;-142.11;100.00
14800;BME280;7491;57.750;11.970;2023-05-20T06:59:08;76365.47;;;-142.11;100.00
14800;BME280;7491;57.750;11.970;2023-05-20T07:01:35;76334.91;;;-142.11;100.00
14800;BME280;7491;57.750;11.970;2023-05-20T07:04:02;76296.16;;;-142.11;100.00
14800;BME280;7491;57.750;11.970;2023-05-20T07:06:29;76288.03;;;-142.11;100.00
14800;BME280;7491;57.750;11.970;2023-05-20T07:08:55;76277.81;;;-142.11;100.00
14800;BME280;7491;57.750;11.970;2023-05-20T07:11:24;76263.56;;;-142.11;100.00
14800;BME280;7491;57.750;11.970;2023-05-20T07:13:51;76239.09;;;-142.11;100.00
14800;BME280;7491;57.750;11.970;2023-05-20T07:16:19;76224.81;;;-142.11;100.00
14800;BME280;7491;57.750;11.970;2023-05-20T07:18:46;76212.59;;;-142.11;100.00
14800;BME280;7491;57.750;11.970;2023-05-20T07:21:13;76182.00;;;-142.11;100.00
14800;BME280;7491;57.750;11.970;2023-05-20T07:23:40;76151.44;;;-142.11;100.00
14800;BME280;7491;57.750;11.970;2023-05-20T07:26:06;76149.41;;;-142.11;100.00
14800;BME280;7491;57.750;11.970;2023-05-20T07:28:35;76137.16;;;-142.11;100.00
14800;BME280;7491;57.750;11.970;2023-05-20T07:31:01;76108.63;;;-142.11;100.00
14800;BME280;7491;57.750;11.970;2023-05-20T07:33:28;76071.94;;;-142.11;100.00
14800;BME280;7491;57.750;11.970;2023-05-20T07:35:57;76045.44;;;-142.11;100.00
14800;BME280;7491;57.750;11.970;2023-05-20T07:38:24;76045.44;;;-142.11;98.91
14800;BME280;7491;57.750;11.970;2023-05-20T07:40:51;76033.22;;;-142.11;96.34
14800;BME280;7491;57.750;11.970;2023-05-20T07:43:19;76018.94;;;-142.11;97.84
14800;BME280;7491;57.750;11.970;2023-05-20T07:45:50;76006.72;;;-142.11;96.52
14800;BME280;7491;57.750;11.970;2023-05-20T07:48:16;75976.13;;;-142.11;95.92
14800;BME280;7491;57.750;11.970;2023-05-20T07:50:43;75986.31;;;-142.11;95.38
14800;BME280;7491;57.750;11.970;2023-05-20T07:53:13;75984.28;;;-142.11;95.21
14800;BME280;7491;57.750;11.970;2023-05-20T07:55:39;75996.50;;;-142.11;94.81
14800;BME280;7491;57.750;11.970;2023-05-20T07:58:06;75980.22;;;-142.11;97.11
14800;BME280;7491;57.750;11.970;2023-05-20T08:00:33;75980.22;;;-142.11;94.29
14800;BME280;7491;57.750;11.970;2023-05-20T08:03:01;76004.66;;;-142.11;96.54
14800;BME280;7491;57.750;11.970;2023-05-20T08:05:28;75988.34;;;-142.11;95.79
14800;BME280;7491;57.750;11.970;2023-05-20T08:07:55;75974.09;;;-142.11;94.62
14800;BME280;7491;57.750;11.970;2023-05-20T08:10:21;75967.97;;;-142.11;95.51
14800;BME280;7491;57.750;11.970;2023-05-20T08:12:48;75959.81;;;-142.11;95.75
14800;BME280;7491;57.750;11.970;2023-05-20T08:15:15;76008.75;;;-142.11;94.16
14800;BME280;7491;57.750;11.970;2023-05-20T08:17:42;75992.44;;;-142.11;94.14
14800;BME280;7491;57.750;11.970;2023-05-20T08:20:13;75984.28;;;-142.11;94.20
14800;BME280;7491;57.750;11.970;2023-05-20T08:22:39;75957.78;;;-142.11;93.86
14800;BME280;7491;57.750;11.970;2023-05-20T08:25:07;75943.50;;;-142.11;91.04
14800;BME280;7491;57.750;11.970;2023-05-20T08:27:34;75912.94;;;-142.11;90.33
14800;BME280;7491;57.750;11.970;2023-05-20T08:30:02;75890.53;;;-142.11;90.94
14800;BME280;7491;57.750;11.970;2023-05-20T08:32:29;75870.13;;;-142.11;90.49
14800;BME280;7491;57.750;11.970;2023-05-20T08:34:55;75870.13;;;-142.11;88.66
14800;BME280;7491;57.750;11.970;2023-05-20T08:37:29;75866.06;;;-142.11;88.45
14800;BME280;7491;57.750;11.970;2023-05-20T08:39:56;75874.22;;;-142.11;87.45
14800;BME280;7491;57.750;11.970;2023-05-20T08:42:23;75878.28;;;-142.11;88.44
14800;BME280;7491;57.750;11.970;2023-05-20T08:44:54;75849.75;;;-142.11;89.38
14800;BME280;7491;57.750;11.970;2023-05-20T08:47:21;75855.88;;;-142.11;86.02
14800;BME280;7491;57.750;11.970;2023-05-20T08:49:48;75843.63;;;-142.11;86.39
14800;BME280;7491;57.750;11.970;2023-05-20T08:52:17;75819.19;;;-142.11;82.78
14800;BME280;7491;57.750;11.970;2023-05-20T08:54:48;75811.03;;;-142.11;83.71
14800;BME280;7491;57.750;11.970;2023-05-20T08:57:15;75806.94;;;-142.11;83.62
14800;BME280;7491;57.750;11.970;2023-05-20T08:59:42;75823.25;;;-142.11;78.48
14800;BME280;7491;57.750;11.970;2023-05-20T09:02:11;75806.94;;;-142.11;80.52
14800;BME280;7491;57.750;11.970;2023-05-20T09:04:38;75829.38;;;-142.11;79.11
14800;BME280;7491;57.750;11.970;2023-05-20T09:07:05;75821.22;;;-142.11;78.19
14800;BME280;7491;57.750;11.970;2023-05-20T09:09:33;75817.13;;;-142.11;77.50
14800;BME280;7491;57.750;11.970;2023-05-20T09:12:02;75833.44;;;-142.11;76.98
14800;BME280;7491;57.750;11.970;2023-05-20T09:14:29;75837.53;;;-142.11;78.17
14800;BME280;7491;57.750;11.970;2023-05-20T09:16:56;75841.59;;;-142.11;77.25
14800;BME280;7491;57.750;11.970;2023-05-20T09:19:23;75829.38;;;-142.11;79.21
14800;BME280;7491;57.750;11.970;2023-05-20T09:21:51;75827.34;;;-142.11;76.93
14800;BME280;7491;57.750;11.970;2023-05-20T09:24:22;75813.06;;;-142.11;80.68
14800;BME280;7491;57.750;11.970;2023-05-20T09:26:49;75811.03;;;-142.11;79.31
14800;BME280;7491;57.750;11.970;2023-05-20T09:29:17;75786.56;;;-142.11;80.30
14800;BME280;7491;57.750;11.970;2023-05-20T09:31:46;75768.22;;;-142.11;80.77
14800;BME280;7491;57.750;11.970;2023-05-20T09:34:13;75749.88;;;-142.11;78.73
14800;BME280;7491;57.750;11.970;2023-05-20T09:36:42;75745.81;;;-142.11;79.58
14800;BME280;7491;57.750;11.970;2023-05-20T09:39:12;75727.44;;;-142.11;79.12
14800;BME280;7491;57.750;11.970;2023-05-20T09:41:48;75721.34;;;-142.11;80.11
14800;BME280;7491;57.750;11.970;2023-05-20T09:44:19;75707.06;;;-142.11;78.05
14800;BME280;7491;57.750;11.970;2023-05-20T09:46:47;75705.03;;;-142.11;78.13
14800;BME280;7491;57.750;11.970;2023-05-20T09:49:18;75696.88;;;-142.11;78.29
14800;BME280;7491;57.750;11.970;2023-05-20T09:51:46;75690.75;;;-142.11;78.22
14800;BME280;7491;57.750;11.970;2023-05-20T09:54:14;75650.00;;;-142.11;79.81
14800;BME280;7491;57.750;11.970;2023-05-20T09:56:43;75672.44;;;-142.11;77.11
14800;BME280;7491;57.750;11.970;2023-05-20T09:59:12;75656.13;;;-142.11;79.29
14800;BME280;7491;57.750;11.970;2023-05-20T10:01:41;75660.19;;;-142.11;77.06
14800;BME280;7491;57.750;11.970;2023-05-20T10:04:09;75676.50;;;-142.11;77.34
14800;BME280;7491;57.750;11.970;2023-05-20T10:06:52;75664.28;;;-142.11;78.46
14800;BME280;7491;57.750;11.970;2023-05-20T10:09:34;75664.28;;;-142.11;76.91
14800;BME280;7491;57.750;11.970;2023-05-20T10:12:11;75643.88;;;-142.11;78.76
14800;BME280;7491;57.750;11.970;2023-05-20T10:14:54;75627.59;;;-142.11;76.27
14800;BME280;7491;57.750;11.970;2023-05-20T10:17:38;75625.53;;;-142.11;78.47
14800;BME280;7491;57.750;11.970;2023-05-20T10:20:06;75605.16;;;-142.11;78.55
14800;BME280;7491;57.750;11.970;2023-05-20T10:22:36;75647.97;;;-142.11;77.43
14800;BME280;7491;57.750;11.970;2023-05-20T10:25:05;75635.72;;;-142.11;78.03
14800;BME280;7491;57.750;11.970;2023-05-20T10:27:41;75617.38;;;-142.11;76.73
14800;BME280;7491;57.750;11.970;2023-05-20T10:30:14;75664.28;;;-142.11;81.22
14800;BME280;7491;57.750;11.970;2023-05-20T10:32:48;75688.72;;;-142.11;84.15
14800;BME280;7491;57.750;11.970;2023-05-20T10:35:20;75700.97;;;-142.11;85.42
14800;BME280;7491;57.750;11.970;2023-05-20T10:37:47;75715.22;;;-142.11;86.53
14800;BME280;7491;57.750;11.970;2023-05-20T10:40:17;75705.03;;;-142.11;86.66
14800;BME280;7491;57.750;11.970;2023-05-20T10:42:44;75686.69;;;-142.11;87.42
14800;BME280;7491;57.750;11.970;2023-05-20T10:45:24;75656.13;;;-142.11;86.74
14800;BME280;7491;57.750;11.970;2023-05-20T10:47:56;75652.03;;;-142.11;87.78
14800;BME280;7491;57.750;11.970;2023-05-20T10:50:27;75633.69;;;-142.11;88.24
14800;BME280;7491;57.750;11.970;2023-05-20T10:53:00;75650.00;;;-142.11;88.00
14800;BME280;7491;57.750;11.970;2023-05-20T10:55:34;75633.69;;;-142.11;87.06
14800;BME280;7491;57.750;11.970;2023-05-20T10:58:01;75650.00;;;-142.11;86.14
14800;BME280;7491;57.750;11.970;2023-05-20T11:00:28;75690.75;;;-142.11;87.24
14800;BME280;7491;57.750;11.970;2023-05-20T11:02:57;75698.91;;;-142.11;87.96
14800;BME280;7491;57.750;11.970;2023-05-20T11:05:25;75725.41;;;-142.11;88.76
14800;BME280;7491;57.750;11.970;2023-05-20T11:07:59;75731.53;;;-142.11;90.98
14800;BME280;7491;57.750;11.970;2023-05-20T11:10:26;75727.44;;;-142.11;91.97
14800;BME280;7491;57.750;11.970;2023-05-20T11:12:54;75717.25;;;-142.11;89.49
14800;BME280;7491;57.750;11.970;2023-05-20T11:15:21;75739.69;;;-142.11;89.58
14800;BME280;7491;57.750;11.970;2023-05-20T11:17:53;75760.06;;;-142.11;90.79
14800;BME280;7491;57.750;11.970;2023-05-20T11:20:22;75729.50;;;-142.11;91.09
14800;BME280;7491;57.750;11.970;2023-05-20T11:22:49;75760.06;;;-142.11;92.13
14800;BME280;7491;57.750;11.970;2023-05-20T11:25:16;75784.53;;;-142.11;92.43
14800;BME280;7491;57.750;11.970;2023-05-20T11:27:44;75853.81;;;-142.11;96.21
14800;BME280;7491;57.750;11.970;2023-05-20T11:30:12;75845.69;;;-142.11;96.89
14800;BME280;7491;57.750;11.970;2023-05-20T11:32:41;75833.44;;;-142.11;96.92
14800;BME280;7491;57.750;11.970;2023-05-20T11:35:20;75817.13;;;-142.11;97.68
14800;BME280;7491;57.750;11.970;2023-05-20T11:38:00;75837.53;;;-142.11;97.54
14800;BME280;7491;57.750;11.970;2023-05-20T11:40:28;75843.63;;;-142.11;98.58
14800;BME280;7491;57.750;11.970;2023-05-20T11:42:55;75853.81;;;-142.11;99.07
14800;BME280;7491;57.750;11.970;2023-05-20T11:45:22;75843.63;;;-142.11;99.70
14800;BME280;7491;57.750;11.970;2023-05-20T11:48:03;75819.19;;;-142.11;99.58
14800;BME280;7491;57.750;11.970;2023-05-20T11:50:33;75837.53;;;-142.11;98.02
14800;BME280;7491;57.750;11.970;2023-05-20T11:53:02;75845.69;;;-142.11;99.45
14800;BME280;7491;57.750;11.970;2023-05-20T11:55:30;75813.06;;;-142.11;99.99
14800;BME280;7491;57.750;11.970;2023-05-20T11:57:58;75817.13;;;-142.11;98.26
14800;BME280;7491;57.750;11.970;2023-05-20T12:00:25;75835.47;;;-142.11;98.07
14800;BME280;7491;57.750;11.970;2023-05-20T12:02:52;75847.72;;;-142.11;98.44
14800;BME280;7491;57.750;11.970;2023-05-20T12:05:19;75837.53;;;-142.11;99.75
14800;BME280;7491;57.750;11.970;2023-05-20T12:07:46;75882.38;;;-142.11;100.00
14800;BME280;7491;57.750;11.970;2023-05-20T12:10:15;75861.97;;;-142.11;100.00
14800;BME280;7491;57.750;11.970;2023-05-20T12:12:45;75839.56;;;-142.11;99.76
14800;BME280;7491;57.750;11.970;2023-05-20T12:15:11;75864.03;;;-142.11;99.88
14800;BME280;7491;57.750;11.970;2023-05-20T12:17:47;75841.59;;;-142.11;99.65
14800;BME280;7491;57.750;11.970;2023-05-20T12:20:15;75821.22;;;-142.11;97.35
14800;BME280;7491;57.750;11.970;2023-05-20T12:22:43;75829.38;;;-142.11;97.11
14800;BME280;7491;57.750;11.970;2023-05-20T12:25:11;75802.88;;;-142.11;97.35
14800;BME280;7491;57.750;11.970;2023-05-20T12:27:41;75804.91;;;-142.11;97.33
14800;BME280;7491;57.750;11.970;2023-05-20T12:33:13;75792.69;;;-142.11;96.51
14800;BME280;7491;57.750;11.970;2023-05-20T12:38:50;75764.16;;;-142.11;95.12
14800;BME280;7491;57.750;11.970;2023-05-20T12:41:19;75776.38;;;-142.11;94.58
14800;BME280;7491;57.750;11.970;2023-05-20T12:43:48;75778.41;;;-142.11;95.00
14800;BME280;7491;57.750;11.970;2023-05-20T12:46:15;75772.28;;;-142.11;94.28
14800;BME280;7491;57.750;11.970;2023-05-20T12:48:47;75786.56;;;-142.11;95.52
14800;BME280;7491;57.750;11.970;2023-05-20T12:51:14;75741.72;;;-142.11;94.38
14800;BME280;7491;57.750;11.970;2023-05-20T12:53:44;75721.34;;;-142.11;93.72
14800;BME280;7491;57.750;11.970;2023-05-20T12:56:11;75735.59;;;-142.11;93.03
14800;BME280;7491;57.750;11.970;2023-05-20T12:58:38;75731.53;;;-142.11;93.29
14800;BME280;7491;57.750;11.970;2023-05-20T13:01:06;75731.53;;;-142.11;93.54
14800;BME280;7491;57.750;11.970;2023-05-20T13:03:33;75749.88;;;-142.11;92.05
14800;BME280;7491;57.750;11.970;2023-05-20T13:06:03;75729.50;;;-142.11;92.42
14800;BME280;7491;57.750;11.970;2023-05-20T13:08:30;75713.19;;;-142.11;91.13
14800;BME280;7491;57.750;11.970;2023-05-20T13:10:57;75721.34;;;-142.11;89.56
14800;BME280;7491;57.750;11.970;2023-05-20T13:13:23;75735.59;;;-142.11;89.14
14800;BME280;7491;57.750;11.970;2023-05-20T13:15:50;75727.44;;;-142.11;89.79
14800;BME280;7491;57.750;11.970;2023-05-20T13:18:18;75717.25;;;-142.11;89.88
14800;BME280;7491;57.750;11.970;2023-05-20T13:20:45;75711.16;;;-142.11;87.68
14800;BME280;7491;57.750;11.970;2023-05-20T13:23:12;75733.56;;;-142.11;87.52
14800;BME280;7491;57.750;11.970;2023-05-20T13:25:39;75737.66;;;-142.11;87.99
14800;BME280;7491;57.750;11.970;2023-05-20T13:28:06;75739.69;;;-142.11;88.44
14800;BME280;7491;57.750;11.970;2023-05-20T13:30:33;75743.75;;;-142.11;86.77
14800;BME280;7491;57.750;11.970;2023-05-20T13:33:00;75729.50;;;-142.11;87.26
14800;BME280;7491;57.750;11.970;2023-05-20T13:35:37;75751.91;;;-142.11;87.59
14800;BME280;7491;57.750;11.970;2023-05-20T13:41:05;75829.38;;;-142.11;87.39
14800;BME280;7491;57.750;11.970;2023-05-20T13:43:32;75829.38;;;-142.11;87.23
14800;BME280;7491;57.750;11.970;2023-05-20T13:45:59;75813.06;;;-142.11;87.72
14800;BME280;7491;57.750;11.970;2023-05-20T13:48:30;75792.69;;;-142.11;88.01
14800;BME280;7491;57.750;11.970;2023-05-20T13:50:59;75788.59;;;-142.11;87.56
14800;BME280;7491;57.750;11.970;2023-05-20T13:53:26;75798.78;;;-142.11;87.16
14800;BME280;7491;57.750;11.970;2023-05-20T13:55:53;75817.13;;;-142.11;85.91
14800;BME280;7491;57.750;11.970;2023-05-20T13:58:20;75839.56;;;-142.11;86.33
14800;BME280;7491;57.750;11.970;2023-05-20T14:00:47;75831.41;;;-142.11;85.43
14800;BME280;7491;57.750;11.970;2023-05-20T14:03:14;75831.41;;;-142.11;85.19
14800;BME280;7491;57.750;11.970;2023-05-20T14:05:48;75835.47;;;-142.11;85.16
14800;BME280;7491;57.750;11.970;2023-05-20T14:08:16;75853.81;;;-142.11;86.09
14800;BME280;7491;57.750;11.970;2023-05-20T14:10:45;75874.22;;;-142.11;87.02
14800;BME280;7491;57.750;11.970;2023-05-20T14:13:13;75872.19;;;-142.11;87.13
14800;BME280;7491;57.750;11.970;2023-05-20T14:15:40;75847.72;;;-142.11;88.58
14800;BME280;7491;57.750;11.970;2023-05-20T14:18:07;75841.59;;;-142.11;86.99
14800;BME280;7491;57.750;11.970;2023-05-20T14:20:34;75853.81;;;-142.11;87.78
14800;BME280;7491;57.750;11.970;2023-05-20T14:23:03;75849.75;;;-142.11;88.20
14800;BME280;7491;57.750;11.970;2023-05-20T14:25:35;75847.72;;;-142.11;88.48
14800;BME280;7491;57.750;11.970;2023-05-20T14:28:04;75859.94;;;-142.11;89.40
14800;BME280;7491;57.750;11.970;2023-05-20T14:30:30;75868.09;;;-142.11;89.89
14800;BME280;7491;57.750;11.970;2023-05-20T14:32:57;75874.22;;;-142.11;90.08
14800;BME280;7491;57.750;11.970;2023-05-20T14:35:29;75890.53;;;-142.11;90.98
14800;BME280;7491;57.750;11.970;2023-05-20T14:37:56;75870.13;;;-142.11;92.04
14800;BME280;7491;57.750;11.970;2023-05-20T14:40:23;75878.28;;;-142.11;91.95
14800;BME280;7491;57.750;11.970;2023-05-20T14:42:51;75896.63;;;-142.11;93.05
14800;BME280;7491;57.750;11.970;2023-05-20T14:45:18;75902.75;;;-142.11;93.68
14800;BME280;7491;57.750;11.970;2023-05-20T14:47:46;75892.56;;;-142.11;93.62
14800;BME280;7491;57.750;11.970;2023-05-20T14:50:16;75870.13;;;-142.11;92.79
14800;BME280;7491;57.750;11.970;2023-05-20T14:52:43;75857.91;;;-142.11;93.00
14800;BME280;7491;57.750;11.970;2023-05-20T14:55:13;75853.81;;;-142.11;93.06
14800;BME280;7491;57.750;11.970;2023-05-20T14:57:46;75845.69;;;-142.11;92.37
14800;BME280;7491;57.750;11.970;2023-05-20T15:00:16;75849.75;;;-142.11;92.53
14800;BME280;7491;57.750;11.970;2023-05-20T15:02:43;75847.72;;;-142.11;92.97
14800;BME280;7491;57.750;11.970;2023-05-20T15:05:10;75849.75;;;-142.11;92.94
14800;BME280;7491;57.750;11.970;2023-05-20T15:07:39;75853.81;;;-142.11;92.14
14800;BME280;7491;57.750;11.970;2023-05-20T15:10:08;75849.75;;;-142.11;92.10
14800;BME280;7491;57.750;11.970;2023-05-20T15:12:36;75845.69;;;-142.11;91.87
14800;BME280;7491;57.750;11.970;2023-05-20T15:15:13;75829.38;;;-142.11;91.07